Aviation Digital Data Service (ADDS)

Output produced by TAFs form (1854 UTC 13 December 2017)
found at http://aviationweather.gov/adds/tafs/
 
KDMN 131720Z 1318/1418 26007KT P6SM SKC